KOAJ/OAJ METAR and TAF weather

Enter ICAO airport designator
Station Type Date Time Source
KOAJ METAR 2020/01/19 14:26 UTC NOAA

KOAJ 191426Z 23014G19KT 10SM BKN013 BKN020 OVC033 17/14 A2990 RMK AO2


Station Type Date Time Source
KOAJ Decoded METAR 2020/01/19 14:26 UTC NOAA

Jacksonville, Albert J Ellis Airport, NC, United States (KOAJ) 34-50N 077-37W
Jan 19, 2020 - 09:26 AM EST / 2020.01.19 1426 UTC
Wind: from the SW (230 degrees) at 16 MPH (14 KT) gusting to 22 MPH (19 KT):0
Visibility: 10 mile(s):0
Sky conditions: overcast
Temperature: 62 F (17 C)
Dew Point: 57 F (14 C)
Relative Humidity: 82%
Pressure (altimeter): 29.9 in. Hg (1012 hPa)
ob: KOAJ 191426Z 23014G19KT 10SM BKN013 BKN020 OVC033 17/14 A2990 RMK AO2
cycle: 14

Station Type Date Time Source
KOAJ TAF 2020/01/19 12:27 UTC NOAA

TAF
AMD KOAJ 191225Z 1912/2012 23010KT 6SM -SHRA SCT005 OVC035
TEMPO 1912/1915 BKN015
FM191500 27009G17KT P6SM VCSH SCT005 OVC015
FM191800 29010G18KT P6SM SCT035
FM192300 34006KT P6SM FEW200
AMD LTD TO CLD VIS AND WIND

Example: see airport list